sensor_id;sensor_type;location;lat;lon;timestamp;P1;durP1;ratioP1;P2;durP2;ratioP2
62588;SDS011;58504;48.770;9.148;2023-04-06T00:00:22;1.02;;;0.90;;
62588;SDS011;58504;48.770;9.148;2023-04-06T00:02:49;1.00;;;1.00;;
62588;SDS011;58504;48.770;9.148;2023-04-06T00:05:17;1.02;;;1.00;;
62588;SDS011;58504;48.770;9.148;2023-04-06T00:07:45;1.13;;;1.02;;
62588;SDS011;58504;48.770;9.148;2023-04-06T00:10:12;0.98;;;0.98;;
62588;SDS011;58504;48.770;9.148;2023-04-06T00:12:39;1.20;;;1.10;;
62588;SDS011;58504;48.770;9.148;2023-04-06T00:15:06;1.85;;;1.13;;
62588;SDS011;58504;48.770;9.148;2023-04-06T00:17:34;1.00;;;1.00;;
62588;SDS011;58504;48.770;9.148;2023-04-06T00:20:00;1.20;;;1.02;;
62588;SDS011;58504;48.770;9.148;2023-04-06T00:22:28;1.00;;;1.00;;
62588;SDS011;58504;48.770;9.148;2023-04-06T00:24:56;0.95;;;0.95;;
62588;SDS011;58504;48.770;9.148;2023-04-06T00:27:23;0.75;;;0.68;;
62588;SDS011;58504;48.770;9.148;2023-04-06T00:29:50;1.75;;;1.17;;
62588;SDS011;58504;48.770;9.148;2023-04-06T00:32:17;1.20;;;1.08;;
62588;SDS011;58504;48.770;9.148;2023-04-06T00:34:43;0.77;;;0.77;;
62588;SDS011;58504;48.770;9.148;2023-04-06T00:37:10;1.08;;;0.98;;
62588;SDS011;58504;48.770;9.148;2023-04-06T00:39:37;1.40;;;1.00;;
62588;SDS011;58504;48.770;9.148;2023-04-06T00:42:07;0.90;;;0.90;;
62588;SDS011;58504;48.770;9.148;2023-04-06T00:44:38;2.60;;;1.20;;
62588;SDS011;58504;48.770;9.148;2023-04-06T00:47:05;1.75;;;1.45;;
62588;SDS011;58504;48.770;9.148;2023-04-06T00:49:32;1.00;;;1.00;;
62588;SDS011;58504;48.770;9.148;2023-04-06T00:52:00;0.95;;;0.95;;
62588;SDS011;58504;48.770;9.148;2023-04-06T00:54:28;0.80;;;0.80;;
62588;SDS011;58504;48.770;9.148;2023-04-06T00:56:55;0.77;;;0.77;;
62588;SDS011;58504;48.770;9.148;2023-04-06T00:59:23;1.02;;;1.02;;
62588;SDS011;58504;48.770;9.148;2023-04-06T01:01:51;1.00;;;0.90;;
62588;SDS011;58504;48.770;9.148;2023-04-06T01:04:17;2.40;;;1.25;;
62588;SDS011;58504;48.770;9.148;2023-04-06T01:06:47;1.40;;;1.17;;
62588;SDS011;58504;48.770;9.148;2023-04-06T01:09:14;1.00;;;1.00;;
62588;SDS011;58504;48.770;9.148;2023-04-06T01:11:41;0.90;;;0.90;;
62588;SDS011;58504;48.770;9.148;2023-04-06T01:14:08;1.02;;;0.95;;
62588;SDS011;58504;48.770;9.148;2023-04-06T01:16:37;1.15;;;1.02;;
62588;SDS011;58504;48.770;9.148;2023-04-06T01:19:06;1.08;;;1.08;;
62588;SDS011;58504;48.770;9.148;2023-04-06T01:21:34;0.80;;;0.80;;
62588;SDS011;58504;48.770;9.148;2023-04-06T01:24:03;1.30;;;1.13;;
62588;SDS011;58504;48.770;9.148;2023-04-06T01:26:31;0.95;;;0.95;;
62588;SDS011;58504;48.770;9.148;2023-04-06T01:28:58;0.90;;;0.90;;
62588;SDS011;58504;48.770;9.148;2023-04-06T01:31:25;1.00;;;1.00;;
62588;SDS011;58504;48.770;9.148;2023-04-06T01:33:53;1.25;;;1.15;;
62588;SDS011;58504;48.770;9.148;2023-04-06T01:36:20;1.15;;;1.10;;
62588;SDS011;58504;48.770;9.148;2023-04-06T01:38:48;1.10;;;1.10;;
62588;SDS011;58504;48.770;9.148;2023-04-06T01:41:16;0.98;;;0.85;;
62588;SDS011;58504;48.770;9.148;2023-04-06T01:43:43;1.10;;;1.10;;
62588;SDS011;58504;48.770;9.148;2023-04-06T01:46:10;2.28;;;1.23;;
62588;SDS011;58504;48.770;9.148;2023-04-06T01:48:37;0.80;;;0.80;;
62588;SDS011;58504;48.770;9.148;2023-04-06T01:51:04;0.95;;;0.95;;
62588;SDS011;58504;48.770;9.148;2023-04-06T01:53:31;0.88;;;0.88;;
62588;SDS011;58504;48.770;9.148;2023-04-06T01:55:58;1.20;;;1.10;;
62588;SDS011;58504;48.770;9.148;2023-04-06T01:58:26;1.10;;;1.10;;
62588;SDS011;58504;48.770;9.148;2023-04-06T02:00:53;0.90;;;0.90;;
62588;SDS011;58504;48.770;9.148;2023-04-06T02:03:21;0.80;;;0.80;;
62588;SDS011;58504;48.770;9.148;2023-04-06T02:05:48;1.10;;;1.10;;
62588;SDS011;58504;48.770;9.148;2023-04-06T02:08:15;1.00;;;1.00;;
62588;SDS011;58504;48.770;9.148;2023-04-06T02:10:41;1.00;;;1.00;;
62588;SDS011;58504;48.770;9.148;2023-04-06T02:13:08;1.10;;;1.10;;
62588;SDS011;58504;48.770;9.148;2023-04-06T02:15:36;1.40;;;1.30;;
62588;SDS011;58504;48.770;9.148;2023-04-06T02:18:03;0.90;;;0.90;;
62588;SDS011;58504;48.770;9.148;2023-04-06T02:20:30;1.05;;;1.05;;
62588;SDS011;58504;48.770;9.148;2023-04-06T02:22:58;1.48;;;1.38;;
62588;SDS011;58504;48.770;9.148;2023-04-06T02:25:25;1.23;;;1.13;;
62588;SDS011;58504;48.770;9.148;2023-04-06T02:27:52;1.10;;;1.10;;
62588;SDS011;58504;48.770;9.148;2023-04-06T02:30:19;1.00;;;1.00;;
62588;SDS011;58504;48.770;9.148;2023-04-06T02:32:48;1.40;;;1.30;;
62588;SDS011;58504;48.770;9.148;2023-04-06T02:35:15;0.98;;;0.98;;
62588;SDS011;58504;48.770;9.148;2023-04-06T02:37:41;1.50;;;1.40;;
62588;SDS011;58504;48.770;9.148;2023-04-06T02:40:09;1.15;;;1.15;;
62588;SDS011;58504;48.770;9.148;2023-04-06T02:42:36;0.90;;;0.90;;
62588;SDS011;58504;48.770;9.148;2023-04-06T02:45:03;1.25;;;1.15;;
62588;SDS011;58504;48.770;9.148;2023-04-06T02:47:31;1.35;;;1.10;;
62588;SDS011;58504;48.770;9.148;2023-04-06T02:50:00;1.35;;;1.25;;
62588;SDS011;58504;48.770;9.148;2023-04-06T02:52:27;0.90;;;0.90;;
62588;SDS011;58504;48.770;9.148;2023-04-06T02:54:54;1.05;;;0.98;;
62588;SDS011;58504;48.770;9.148;2023-04-06T02:57:21;0.90;;;0.90;;
62588;SDS011;58504;48.770;9.148;2023-04-06T02:59:48;1.00;;;1.00;;
62588;SDS011;58504;48.770;9.148;2023-04-06T03:02:14;1.05;;;0.88;;
62588;SDS011;58504;48.770;9.148;2023-04-06T03:04:41;1.33;;;1.23;;
62588;SDS011;58504;48.770;9.148;2023-04-06T03:07:10;0.93;;;0.93;;
62588;SDS011;58504;48.770;9.148;2023-04-06T03:09:37;1.02;;;1.00;;
62588;SDS011;58504;48.770;9.148;2023-04-06T03:12:04;1.10;;;1.10;;
62588;SDS011;58504;48.770;9.148;2023-04-06T03:14:31;0.80;;;0.80;;
62588;SDS011;58504;48.770;9.148;2023-04-06T03:16:58;1.05;;;1.05;;
62588;SDS011;58504;48.770;9.148;2023-04-06T03:19:25;0.80;;;0.80;;
62588;SDS011;58504;48.770;9.148;2023-04-06T03:21:52;1.08;;;0.98;;
62588;SDS011;58504;48.770;9.148;2023-04-06T03:24:20;0.88;;;0.88;;
62588;SDS011;58504;48.770;9.148;2023-04-06T03:26:47;1.08;;;1.08;;
62588;SDS011;58504;48.770;9.148;2023-04-06T03:29:14;1.08;;;1.00;;
62588;SDS011;58504;48.770;9.148;2023-04-06T03:31:41;1.63;;;1.40;;
62588;SDS011;58504;48.770;9.148;2023-04-06T03:34:07;1.10;;;1.10;;
62588;SDS011;58504;48.770;9.148;2023-04-06T03:36:34;1.08;;;1.08;;
62588;SDS011;58504;48.770;9.148;2023-04-06T03:39:01;1.10;;;1.10;;
62588;SDS011;58504;48.770;9.148;2023-04-06T03:41:30;1.10;;;0.90;;
62588;SDS011;58504;48.770;9.148;2023-04-06T03:43:56;2.70;;;1.80;;
62588;SDS011;58504;48.770;9.148;2023-04-06T03:46:23;1.05;;;1.05;;
62588;SDS011;58504;48.770;9.148;2023-04-06T03:48:50;1.02;;;0.93;;
62588;SDS011;58504;48.770;9.148;2023-04-06T03:51:17;1.45;;;1.35;;
62588;SDS011;58504;48.770;9.148;2023-04-06T03:53:44;1.50;;;1.40;;
62588;SDS011;58504;48.770;9.148;2023-04-06T03:56:11;1.00;;;1.00;;
62588;SDS011;58504;48.770;9.148;2023-04-06T03:58:39;1.20;;;1.20;;
62588;SDS011;58504;48.770;9.148;2023-04-06T04:01:06;1.30;;;1.20;;
62588;SDS011;58504;48.770;9.148;2023-04-06T04:03:33;1.15;;;1.13;;
62588;SDS011;58504;48.770;9.148;2023-04-06T04:06:00;1.23;;;1.10;;
62588;SDS011;58504;48.770;9.148;2023-04-06T04:08:26;1.08;;;0.98;;
62588;SDS011;58504;48.770;9.148;2023-04-06T04:10:53;1.00;;;1.00;;
62588;SDS011;58504;48.770;9.148;2023-04-06T04:13:20;0.98;;;0.98;;
62588;SDS011;58504;48.770;9.148;2023-04-06T04:15:48;1.40;;;1.30;;
62588;SDS011;58504;48.770;9.148;2023-04-06T04:18:15;1.30;;;1.20;;
62588;SDS011;58504;48.770;9.148;2023-04-06T04:20:42;1.30;;;1.20;;
62588;SDS011;58504;48.770;9.148;2023-04-06T04:23:09;1.60;;;1.00;;
62588;SDS011;58504;48.770;9.148;2023-04-06T04:25:36;1.00;;;1.00;;
62588;SDS011;58504;48.770;9.148;2023-04-06T04:28:03;1.00;;;1.00;;
62588;SDS011;58504;48.770;9.148;2023-04-06T04:30:30;1.20;;;1.10;;
62588;SDS011;58504;48.770;9.148;2023-04-06T04:32:58;1.00;;;1.00;;
62588;SDS011;58504;48.770;9.148;2023-04-06T04:35:26;1.10;;;1.10;;
62588;SDS011;58504;48.770;9.148;2023-04-06T04:37:53;1.40;;;1.30;;
62588;SDS011;58504;48.770;9.148;2023-04-06T04:40:19;1.27;;;1.17;;
62588;SDS011;58504;48.770;9.148;2023-04-06T04:42:46;1.05;;;1.05;;
62588;SDS011;58504;48.770;9.148;2023-04-06T04:45:13;1.55;;;1.45;;
62588;SDS011;58504;48.770;9.148;2023-04-06T04:47:40;2.20;;;1.38;;
62588;SDS011;58504;48.770;9.148;2023-04-06T04:50:09;1.65;;;1.38;;
62588;SDS011;58504;48.770;9.148;2023-04-06T04:52:37;1.40;;;0.80;;
62588;SDS011;58504;48.770;9.148;2023-04-06T04:55:04;1.30;;;1.20;;
62588;SDS011;58504;48.770;9.148;2023-04-06T04:57:31;1.00;;;1.00;;
62588;SDS011;58504;48.770;9.148;2023-04-06T04:59:58;1.13;;;1.02;;
62588;SDS011;58504;48.770;9.148;2023-04-06T05:02:25;1.00;;;1.00;;
62588;SDS011;58504;48.770;9.148;2023-04-06T05:04:51;1.52;;;1.42;;
62588;SDS011;58504;48.770;9.148;2023-04-06T05:07:20;1.05;;;1.05;;
62588;SDS011;58504;48.770;9.148;2023-04-06T05:09:46;1.17;;;1.15;;
62588;SDS011;58504;48.770;9.148;2023-04-06T05:12:13;1.08;;;1.08;;
62588;SDS011;58504;48.770;9.148;2023-04-06T05:14:40;1.40;;;1.30;;
62588;SDS011;58504;48.770;9.148;2023-04-06T05:17:07;2.20;;;1.35;;
62588;SDS011;58504;48.770;9.148;2023-04-06T05:19:34;1.50;;;1.40;;
62588;SDS011;58504;48.770;9.148;2023-04-06T05:22:01;1.15;;;1.15;;
62588;SDS011;58504;48.770;9.148;2023-04-06T05:24:29;1.52;;;1.42;;
62588;SDS011;58504;48.770;9.148;2023-04-06T05:26:56;1.00;;;1.00;;
62588;SDS011;58504;48.770;9.148;2023-04-06T05:29:25;1.10;;;1.10;;
62588;SDS011;58504;48.770;9.148;2023-04-06T05:31:52;1.33;;;1.20;;
62588;SDS011;58504;48.770;9.148;2023-04-06T05:34:18;1.30;;;1.20;;
62588;SDS011;58504;48.770;9.148;2023-04-06T05:36:45;1.15;;;1.10;;
62588;SDS011;58504;48.770;9.148;2023-04-06T05:39:12;1.02;;;1.00;;
62588;SDS011;58504;48.770;9.148;2023-04-06T05:41:40;1.10;;;1.10;;
62588;SDS011;58504;48.770;9.148;2023-04-06T05:44:07;1.10;;;1.10;;
62588;SDS011;58504;48.770;9.148;2023-04-06T05:46:34;0.90;;;0.90;;
62588;SDS011;58504;48.770;9.148;2023-04-06T05:49:01;1.20;;;1.20;;
62588;SDS011;58504;48.770;9.148;2023-04-06T05:51:28;1.10;;;1.10;;
62588;SDS011;58504;48.770;9.148;2023-04-06T05:53:55;1.20;;;1.15;;
62588;SDS011;58504;48.770;9.148;2023-04-06T05:56:23;1.33;;;1.23;;
62588;SDS011;58504;48.770;9.148;2023-04-06T05:58:51;1.25;;;1.15;;
62588;SDS011;58504;48.770;9.148;2023-04-06T06:01:18;1.13;;;1.10;;
62588;SDS011;58504;48.770;9.148;2023-04-06T06:03:45;0.88;;;0.88;;
62588;SDS011;58504;48.770;9.148;2023-04-06T06:06:12;1.10;;;1.10;;
62588;SDS011;58504;48.770;9.148;2023-04-06T06:08:39;1.17;;;1.17;;
62588;SDS011;58504;48.770;9.148;2023-04-06T06:11:06;1.10;;;1.05;;
62588;SDS011;58504;48.770;9.148;2023-04-06T06:13:33;1.00;;;1.00;;
62588;SDS011;58504;48.770;9.148;2023-04-06T06:16:01;1.33;;;1.20;;
62588;SDS011;58504;48.770;9.148;2023-04-06T06:18:30;1.50;;;1.40;;
62588;SDS011;58504;48.770;9.148;2023-04-06T06:20:57;1.38;;;1.05;;
62588;SDS011;58504;48.770;9.148;2023-04-06T06:23:24;1.35;;;1.25;;
62588;SDS011;58504;48.770;9.148;2023-04-06T06:25:51;1.10;;;1.10;;
62588;SDS011;58504;48.770;9.148;2023-04-06T06:28:18;1.50;;;1.40;;
62588;SDS011;58504;48.770;9.148;2023-04-06T06:30:45;0.82;;;0.82;;
62588;SDS011;58504;48.770;9.148;2023-04-06T06:33:13;1.70;;;1.27;;
62588;SDS011;58504;48.770;9.148;2023-04-06T06:35:40;1.50;;;1.40;;
62588;SDS011;58504;48.770;9.148;2023-04-06T06:38:07;1.30;;;1.20;;
62588;SDS011;58504;48.770;9.148;2023-04-06T06:40:34;3.22;;;1.50;;
62588;SDS011;58504;48.770;9.148;2023-04-06T06:43:01;1.25;;;1.20;;
62588;SDS011;58504;48.770;9.148;2023-04-06T06:45:28;1.40;;;1.30;;
62588;SDS011;58504;48.770;9.148;2023-04-06T06:47:55;2.85;;;1.38;;
62588;SDS011;58504;48.770;9.148;2023-04-06T06:50:23;1.40;;;1.30;;
62588;SDS011;58504;48.770;9.148;2023-04-06T06:52:50;1.02;;;0.93;;
62588;SDS011;58504;48.770;9.148;2023-04-06T06:55:17;1.63;;;1.52;;
62588;SDS011;58504;48.770;9.148;2023-04-06T06:57:45;1.48;;;1.38;;
62588;SDS011;58504;48.770;9.148;2023-04-06T07:00:13;4.38;;;1.63;;
62588;SDS011;58504;48.770;9.148;2023-04-06T07:02:40;8.57;;;2.28;;
62588;SDS011;58504;48.770;9.148;2023-04-06T07:05:07;3.72;;;1.90;;
62588;SDS011;58504;48.770;9.148;2023-04-06T07:07:36;2.10;;;1.90;;
62588;SDS011;58504;48.770;9.148;2023-04-06T07:10:03;2.70;;;1.92;;
62588;SDS011;58504;48.770;9.148;2023-04-06T07:12:30;2.60;;;2.10;;
62588;SDS011;58504;48.770;9.148;2023-04-06T07:14:57;4.22;;;2.60;;
62588;SDS011;58504;48.770;9.148;2023-04-06T07:17:24;4.90;;;2.33;;
62588;SDS011;58504;48.770;9.148;2023-04-06T07:19:50;9.18;;;2.33;;
62588;SDS011;58504;48.770;9.148;2023-04-06T07:22:17;4.90;;;1.83;;
62588;SDS011;58504;48.770;9.148;2023-04-06T07:24:45;1.67;;;1.58;;
62588;SDS011;58504;48.770;9.148;2023-04-06T07:27:12;2.33;;;1.55;;
62588;SDS011;58504;48.770;9.148;2023-04-06T07:29:41;2.30;;;1.88;;
62588;SDS011;58504;48.770;9.148;2023-04-06T07:32:08;3.55;;;2.03;;
62588;SDS011;58504;48.770;9.148;2023-04-06T07:34:35;3.33;;;1.95;;
62588;SDS011;58504;48.770;9.148;2023-04-06T07:37:01;3.22;;;1.67;;
62588;SDS011;58504;48.770;9.148;2023-04-06T07:39:28;2.95;;;1.77;;
62588;SDS011;58504;48.770;9.148;2023-04-06T07:41:57;4.20;;;2.13;;
62588;SDS011;58504;48.770;9.148;2023-04-06T07:44:23;1.70;;;1.60;;
62588;SDS011;58504;48.770;9.148;2023-04-06T07:46:50;1.88;;;1.40;;
62588;SDS011;58504;48.770;9.148;2023-04-06T07:49:17;2.10;;;1.58;;
62588;SDS011;58504;48.770;9.148;2023-04-06T07:51:45;4.30;;;1.92;;
62588;SDS011;58504;48.770;9.148;2023-04-06T07:54:12;1.70;;;1.60;;
62588;SDS011;58504;48.770;9.148;2023-04-06T07:56:39;2.05;;;1.85;;
62588;SDS011;58504;48.770;9.148;2023-04-06T07:59:07;1.90;;;1.50;;
62588;SDS011;58504;48.770;9.148;2023-04-06T08:01:36;1.63;;;1.52;;
62588;SDS011;58504;48.770;9.148;2023-04-06T08:04:03;1.60;;;1.50;;
62588;SDS011;58504;48.770;9.148;2023-04-06T08:06:30;2.63;;;1.50;;
62588;SDS011;58504;48.770;9.148;2023-04-06T08:08:57;7.13;;;1.52;;
62588;SDS011;58504;48.770;9.148;2023-04-06T08:11:23;4.00;;;1.65;;
62588;SDS011;58504;48.770;9.148;2023-04-06T08:13:51;1.65;;;1.55;;
62588;SDS011;58504;48.770;9.148;2023-04-06T08:16:19;1.35;;;1.25;;
62588;SDS011;58504;48.770;9.148;2023-04-06T08:18:46;1.60;;;1.50;;
62588;SDS011;58504;48.770;9.148;2023-04-06T08:21:13;1.40;;;1.30;;
62588;SDS011;58504;48.770;9.148;2023-04-06T08:23:40;1.60;;;1.50;;
62588;SDS011;58504;48.770;9.148;2023-04-06T08:26:07;1.85;;;1.70;;
62588;SDS011;58504;48.770;9.148;2023-04-06T08:28:34;1.80;;;1.70;;
62588;SDS011;58504;48.770;9.148;2023-04-06T08:31:03;6.07;;;1.80;;
62588;SDS011;58504;48.770;9.148;2023-04-06T08:33:32;1.65;;;1.55;;
62588;SDS011;58504;48.770;9.148;2023-04-06T08:36:06;2.95;;;1.70;;
62588;SDS011;58504;48.770;9.148;2023-04-06T08:38:34;1.42;;;1.33;;
62588;SDS011;58504;48.770;9.148;2023-04-06T08:41:06;1.63;;;1.35;;
62588;SDS011;58504;48.770;9.148;2023-04-06T08:43:34;2.97;;;1.58;;
62588;SDS011;58504;48.770;9.148;2023-04-06T08:46:08;1.85;;;1.40;;
62588;SDS011;58504;48.770;9.148;2023-04-06T08:48:37;1.50;;;1.38;;
62588;SDS011;58504;48.770;9.148;2023-04-06T08:51:05;1.95;;;1.77;;
62588;SDS011;58504;48.770;9.148;2023-04-06T08:53:32;1.52;;;1.42;;
62588;SDS011;58504;48.770;9.148;2023-04-06T08:55:59;1.40;;;1.30;;
62588;SDS011;58504;48.770;9.148;2023-04-06T08:58:28;1.63;;;1.50;;
62588;SDS011;58504;48.770;9.148;2023-04-06T09:00:58;1.40;;;1.30;;
62588;SDS011;58504;48.770;9.148;2023-04-06T09:03:27;2.80;;;1.50;;
62588;SDS011;58504;48.770;9.148;2023-04-06T09:05:57;2.80;;;1.25;;
62588;SDS011;58504;48.770;9.148;2023-04-06T09:08:25;1.58;;;1.40;;
62588;SDS011;58504;48.770;9.148;2023-04-06T09:10:52;2.22;;;1.33;;
62588;SDS011;58504;48.770;9.148;2023-04-06T09:13:19;2.42;;;1.35;;
62588;SDS011;58504;48.770;9.148;2023-04-06T09:15:46;1.60;;;1.50;;
62588;SDS011;58504;48.770;9.148;2023-04-06T09:18:12;3.20;;;1.73;;
62588;SDS011;58504;48.770;9.148;2023-04-06T09:20:40;1.98;;;1.58;;
62588;SDS011;58504;48.770;9.148;2023-04-06T09:23:16;3.63;;;1.40;;
62588;SDS011;58504;48.770;9.148;2023-04-06T09:25:43;1.42;;;1.33;;
62588;SDS011;58504;48.770;9.148;2023-04-06T09:28:10;1.80;;;1.25;;
62588;SDS011;58504;48.770;9.148;2023-04-06T09:30:37;1.60;;;1.50;;
62588;SDS011;58504;48.770;9.148;2023-04-06T09:33:21;1.90;;;1.45;;
62588;SDS011;58504;48.770;9.148;2023-04-06T09:35:49;1.50;;;1.30;;
62588;SDS011;58504;48.770;9.148;2023-04-06T09:38:17;3.10;;;1.52;;
62588;SDS011;58504;48.770;9.148;2023-04-06T09:40:48;1.30;;;1.20;;
62588;SDS011;58504;48.770;9.148;2023-04-06T09:43:23;1.67;;;1.58;;
62588;SDS011;58504;48.770;9.148;2023-04-06T09:45:50;1.67;;;1.23;;
62588;SDS011;58504;48.770;9.148;2023-04-06T09:48:18;2.22;;;1.75;;
62588;SDS011;58504;48.770;9.148;2023-04-06T09:50:46;1.77;;;1.48;;
62588;SDS011;58504;48.770;9.148;2023-04-06T09:53:14;2.80;;;1.70;;
62588;SDS011;58504;48.770;9.148;2023-04-06T09:55:45;1.95;;;1.25;;
62588;SDS011;58504;48.770;9.148;2023-04-06T09:58:15;1.58;;;1.20;;
62588;SDS011;58504;48.770;9.148;2023-04-06T10:00:44;1.20;;;1.10;;
62588;SDS011;58504;48.770;9.148;2023-04-06T10:03:19;1.40;;;1.30;;
62588;SDS011;58504;48.770;9.148;2023-04-06T10:05:54;2.47;;;1.77;;
62588;SDS011;58504;48.770;9.148;2023-04-06T10:08:25;1.23;;;1.10;;
62588;SDS011;58504;48.770;9.148;2023-04-06T10:10:54;2.17;;;1.45;;
62588;SDS011;58504;48.770;9.148;2023-04-06T10:13:22;4.88;;;1.85;;
62588;SDS011;58504;48.770;9.148;2023-04-06T10:15:50;11.75;;;1.98;;
62588;SDS011;58504;48.770;9.148;2023-04-06T10:18:17;3.58;;;1.98;;
62588;SDS011;58504;48.770;9.148;2023-04-06T10:20:47;2.20;;;2.05;;
62588;SDS011;58504;48.770;9.148;2023-04-06T10:23:19;1.92;;;1.80;;
62588;SDS011;58504;48.770;9.148;2023-04-06T10:26:01;3.33;;;1.60;;
62588;SDS011;58504;48.770;9.148;2023-04-06T10:28:30;1.50;;;1.40;;
62588;SDS011;58504;48.770;9.148;2023-04-06T10:30:58;1.58;;;1.48;;
62588;SDS011;58504;48.770;9.148;2023-04-06T10:33:26;3.47;;;1.60;;
62588;SDS011;58504;48.770;9.148;2023-04-06T10:35:54;4.50;;;1.85;;
62588;SDS011;58504;48.770;9.148;2023-04-06T10:38:21;1.38;;;1.25;;
62588;SDS011;58504;48.770;9.148;2023-04-06T10:41:04;1.35;;;1.27;;
62588;SDS011;58504;48.770;9.148;2023-04-06T10:43:32;1.95;;;1.48;;
62588;SDS011;58504;48.770;9.148;2023-04-06T10:46:01;3.20;;;1.40;;
62588;SDS011;58504;48.770;9.148;2023-04-06T10:48:36;1.70;;;1.30;;
62588;SDS011;58504;48.770;9.148;2023-04-06T10:51:06;1.42;;;1.33;;
62588;SDS011;58504;48.770;9.148;2023-04-06T10:53:34;1.42;;;1.23;;
62588;SDS011;58504;48.770;9.148;2023-04-06T10:56:01;1.40;;;1.30;;
62588;SDS011;58504;48.770;9.148;2023-04-06T10:58:31;1.55;;;1.38;;
62588;SDS011;58504;48.770;9.148;2023-04-06T11:00:58;1.20;;;1.20;;
62588;SDS011;58504;48.770;9.148;2023-04-06T11:03:25;1.70;;;1.60;;
62588;SDS011;58504;48.770;9.148;2023-04-06T11:05:52;3.28;;;1.35;;
62588;SDS011;58504;48.770;9.148;2023-04-06T11:08:23;0.88;;;0.88;;
62588;SDS011;58504;48.770;9.148;2023-04-06T11:11:03;1.38;;;1.27;;
62588;SDS011;58504;48.770;9.148;2023-04-06T11:13:37;1.80;;;1.70;;
62588;SDS011;58504;48.770;9.148;2023-04-06T11:16:05;1.95;;;1.27;;
62588;SDS011;58504;48.770;9.148;2023-04-06T11:18:32;1.27;;;1.20;;
62588;SDS011;58504;48.770;9.148;2023-04-06T11:20:59;3.33;;;1.60;;
62588;SDS011;58504;48.770;9.148;2023-04-06T11:23:26;5.18;;;1.30;;
62588;SDS011;58504;48.770;9.148;2023-04-06T11:25:53;1.20;;;1.00;;
62588;SDS011;58504;48.770;9.148;2023-04-06T11:28:20;2.88;;;1.17;;
62588;SDS011;58504;48.770;9.148;2023-04-06T11:30:48;1.35;;;1.25;;
62588;SDS011;58504;48.770;9.148;2023-04-06T11:33:19;1.48;;;1.27;;
62588;SDS011;58504;48.770;9.148;2023-04-06T11:35:47;3.38;;;1.42;;
62588;SDS011;58504;48.770;9.148;2023-04-06T11:38:14;2.90;;;1.88;;
62588;SDS011;58504;48.770;9.148;2023-04-06T11:40:41;1.52;;;1.42;;
62588;SDS011;58504;48.770;9.148;2023-04-06T11:43:10;7.20;;;1.30;;
62588;SDS011;58504;48.770;9.148;2023-04-06T11:45:41;1.00;;;1.00;;
62588;SDS011;58504;48.770;9.148;2023-04-06T11:48:18;2.75;;;1.20;;
62588;SDS011;58504;48.770;9.148;2023-04-06T11:50:47;2.78;;;1.23;;
62588;SDS011;58504;48.770;9.148;2023-04-06T11:53:14;3.63;;;1.50;;
62588;SDS011;58504;48.770;9.148;2023-04-06T11:55:41;1.80;;;1.08;;
62588;SDS011;58504;48.770;9.148;2023-04-06T11:58:11;1.27;;;1.02;;
62588;SDS011;58504;48.770;9.148;2023-04-06T12:00:38;1.20;;;1.10;;
62588;SDS011;58504;48.770;9.148;2023-04-06T12:03:09;1.33;;;1.10;;
62588;SDS011;58504;48.770;9.148;2023-04-06T12:05:38;4.53;;;1.55;;
62588;SDS011;58504;48.770;9.148;2023-04-06T12:08:04;0.95;;;0.80;;
62588;SDS011;58504;48.770;9.148;2023-04-06T12:10:31;1.15;;;1.05;;
62588;SDS011;58504;48.770;9.148;2023-04-06T12:12:58;3.58;;;1.02;;
62588;SDS011;58504;48.770;9.148;2023-04-06T12:15:25;1.73;;;1.05;;
62588;SDS011;58504;48.770;9.148;2023-04-06T12:17:52;1.88;;;1.15;;
62588;SDS011;58504;48.770;9.148;2023-04-06T12:20:19;1.77;;;1.48;;
62588;SDS011;58504;48.770;9.148;2023-04-06T12:22:47;1.50;;;1.40;;
62588;SDS011;58504;48.770;9.148;2023-04-06T12:25:14;4.43;;;1.33;;
62588;SDS011;58504;48.770;9.148;2023-04-06T12:27:41;2.03;;;1.48;;
62588;SDS011;58504;48.770;9.148;2023-04-06T12:30:08;1.27;;;1.17;;
62588;SDS011;58504;48.770;9.148;2023-04-06T12:32:36;2.60;;;1.95;;
62588;SDS011;58504;48.770;9.148;2023-04-06T12:35:02;3.45;;;2.75;;
62588;SDS011;58504;48.770;9.148;2023-04-06T12:37:30;4.75;;;3.22;;
62588;SDS011;58504;48.770;9.148;2023-04-06T12:39:58;5.63;;;3.53;;
62588;SDS011;58504;48.770;9.148;2023-04-06T12:42:25;6.72;;;3.28;;
62588;SDS011;58504;48.770;9.148;2023-04-06T12:44:52;5.07;;;3.40;;
62588;SDS011;58504;48.770;9.148;2023-04-06T12:47:19;6.22;;;3.28;;
62588;SDS011;58504;48.770;9.148;2023-04-06T12:49:47;3.67;;;3.15;;
62588;SDS011;58504;48.770;9.148;2023-04-06T12:52:15;5.05;;;3.55;;
62588;SDS011;58504;48.770;9.148;2023-04-06T12:54:41;4.38;;;3.47;;
62588;SDS011;58504;48.770;9.148;2023-04-06T12:57:11;4.68;;;2.30;;
62588;SDS011;58504;48.770;9.148;2023-04-06T12:59:38;3.50;;;2.97;;
62588;SDS011;58504;48.770;9.148;2023-04-06T13:02:05;5.63;;;3.30;;
62588;SDS011;58504;48.770;9.148;2023-04-06T13:04:32;6.72;;;2.85;;
62588;SDS011;58504;48.770;9.148;2023-04-06T13:06:59;2.72;;;2.53;;
62588;SDS011;58504;48.770;9.148;2023-04-06T13:09:26;6.72;;;3.08;;
62588;SDS011;58504;48.770;9.148;2023-04-06T13:11:52;4.43;;;3.10;;
62588;SDS011;58504;48.770;9.148;2023-04-06T13:14:21;5.97;;;2.67;;
62588;SDS011;58504;48.770;9.148;2023-04-06T13:16:47;5.50;;;2.42;;
62588;SDS011;58504;48.770;9.148;2023-04-06T13:19:14;3.88;;;2.55;;
62588;SDS011;58504;48.770;9.148;2023-04-06T13:21:41;3.53;;;2.40;;
62588;SDS011;58504;48.770;9.148;2023-04-06T13:24:08;4.25;;;2.63;;
62588;SDS011;58504;48.770;9.148;2023-04-06T13:26:35;3.45;;;1.88;;
62588;SDS011;58504;48.770;9.148;2023-04-06T13:29:02;3.55;;;2.13;;
62588;SDS011;58504;48.770;9.148;2023-04-06T13:31:30;3.10;;;1.85;;
62588;SDS011;58504;48.770;9.148;2023-04-06T13:33:59;3.58;;;1.83;;
62588;SDS011;58504;48.770;9.148;2023-04-06T13:36:26;2.78;;;2.00;;
62588;SDS011;58504;48.770;9.148;2023-04-06T13:38:53;2.78;;;1.88;;
62588;SDS011;58504;48.770;9.148;2023-04-06T13:41:20;1.88;;;1.70;;
62588;SDS011;58504;48.770;9.148;2023-04-06T13:43:48;6.35;;;1.90;;
62588;SDS011;58504;48.770;9.148;2023-04-06T13:46:15;4.20;;;1.92;;
62588;SDS011;58504;48.770;9.148;2023-04-06T13:48:43;1.50;;;1.40;;
62588;SDS011;58504;48.770;9.148;2023-04-06T13:51:10;1.45;;;1.35;;
62588;SDS011;58504;48.770;9.148;2023-04-06T13:53:37;2.47;;;1.40;;
62588;SDS011;58504;48.770;9.148;2023-04-06T13:56:04;1.80;;;1.70;;
62588;SDS011;58504;48.770;9.148;2023-04-06T13:58:31;2.10;;;1.50;;
62588;SDS011;58504;48.770;9.148;2023-04-06T14:01:01;1.65;;;1.55;;
62588;SDS011;58504;48.770;9.148;2023-04-06T14:03:29;4.50;;;1.60;;
62588;SDS011;58504;48.770;9.148;2023-04-06T14:05:57;3.60;;;1.50;;
62588;SDS011;58504;48.770;9.148;2023-04-06T14:08:25;1.58;;;1.48;;
62588;SDS011;58504;48.770;9.148;2023-04-06T14:10:52;5.25;;;2.05;;
62588;SDS011;58504;48.770;9.148;2023-04-06T14:13:19;1.55;;;1.45;;
62588;SDS011;58504;48.770;9.148;2023-04-06T14:15:45;3.13;;;1.73;;
62588;SDS011;58504;48.770;9.148;2023-04-06T14:18:12;1.58;;;1.17;;
62588;SDS011;58504;48.770;9.148;2023-04-06T14:20:39;2.42;;;1.45;;
62588;SDS011;58504;48.770;9.148;2023-04-06T14:23:08;1.15;;;1.08;;
62588;SDS011;58504;48.770;9.148;2023-04-06T14:25:34;3.90;;;1.60;;
62588;SDS011;58504;48.770;9.148;2023-04-06T14:28:01;1.25;;;1.25;;
62588;SDS011;58504;48.770;9.148;2023-04-06T14:30:29;1.42;;;1.27;;
62588;SDS011;58504;48.770;9.148;2023-04-06T14:32:56;2.17;;;1.45;;
62588;SDS011;58504;48.770;9.148;2023-04-06T14:35:23;1.23;;;1.13;;
62588;SDS011;58504;48.770;9.148;2023-04-06T14:37:52;1.67;;;1.10;;
62588;SDS011;58504;48.770;9.148;2023-04-06T14:40:21;2.53;;;1.00;;
62588;SDS011;58504;48.770;9.148;2023-04-06T14:42:47;2.15;;;1.40;;
62588;SDS011;58504;48.770;9.148;2023-04-06T14:45:15;1.70;;;1.20;;
62588;SDS011;58504;48.770;9.148;2023-04-06T14:47:44;1.27;;;1.17;;
62588;SDS011;58504;48.770;9.148;2023-04-06T14:50:11;1.55;;;1.20;;